Catàleg de serveis del Meteocat
Campanya meteocatpedra

Dades de l'estació automàtica Viladecans

?
?
Resum diari 22:00 TU
Dades diàries de l'estació meteorològica
Temperatura mitjana 15.8 °C
Temperatura màxima 19.9 °C 13:02 TU
Temperatura mínima 13.2 °C 4:52 TU
Humitat relativa mitjana 69%
Precipitació acumulada 0.0 mm
Ratxa màxima del vent (2 m) 27.0 km/h - 82º 16:00 TU
Irradiació solar global 12.7 MJ/m2

El tram horari està expressat en Temps Universal (TU). Cal sumar una hora en horari d'hivern i dues en horari d'estiu per passar a l'hora oficial.

Viladecans

Metadades estació meteorol´gica
Municipi Viladecans
Comarca Baix Llobregat
Altitud 3 m
Data alta 29.04.1993
Estat actual Operativa
Dades de període
Període
TU
TM
°C
TX
°C
TN
°C
HRM
%
PPT
mm
VVM (2 m)
km/h
DVM (2 m)
graus
VVX (2 m)
km/h
RS
W/m2
00:00 - 00:30 14.4 14.4 14.3 85 0.0 5.4 85 13.3 0
00:30 - 01:00 14.3 14.4 14.2 84 0.0 4.3 86 10.4 0
01:00 - 01:30 14.2 14.3 14.2 83 0.0 4.7 89 13.3 0
01:30 - 02:00 14.1 14.3 13.9 84 0.0 3.2 89 10.1 0
02:00 - 02:30 13.8 13.9 13.8 84 0.0 4.0 84 10.8 0
02:30 - 03:00 13.7 13.8 13.5 83 0.0 3.2 77 9.0 0
03:00 - 03:30 13.7 13.7 13.5 84 0.0 2.9 63 10.4 0
03:30 - 04:00 13.7 13.7 13.6 84 0.0 3.6 58 12.2 0
04:00 - 04:30 13.6 13.7 13.5 83 0.0 4.0 51 17.3 0
04:30 - 05:00 13.4 13.5 13.2 82 0.0 4.0 43 12.6 0
05:00 - 05:30 13.4 13.5 13.3 80 0.0 4.3 40 13.0 8
05:30 - 06:00 13.8 14.1 13.5 77 0.0 4.3 53 16.2 31
06:00 - 06:30 14.2 14.5 14.1 75 0.0 4.3 64 15.8 61
06:30 - 07:00 14.7 14.9 14.6 73 0.0 5.8 83 16.9 111
07:00 - 07:30 15.1 15.2 14.9 73 0.0 7.2 87 18.4 181
07:30 - 08:00 15.4 15.6 15.1 70 0.0 7.9 84 22.0 225
08:00 - 08:30 15.4 15.5 15.3 68 0.0 8.6 77 23.0 136
08:30 - 09:00 15.2 15.9 15.0 67 0.0 7.2 72 18.4 172
09:00 - 09:30 15.9 16.1 15.8 64 0.0 7.6 78 17.6 214
09:30 - 10:00 16.2 16.5 15.9 59 0.0 7.2 76 18.4 239
10:00 - 10:30 16.8 17.4 16.4 55 0.0 6.5 78 19.4 292
10:30 - 11:00 17.5 17.8 17.4 56 0.0 8.6 79 19.4 409
11:00 - 11:30 17.4 17.7 17.1 62 0.0 9.0 82 23.4 346
11:30 - 12:00 17.5 18.3 17.2 65 0.0 7.6 83 22.0 463
12:00 - 12:30 18.3 18.7 17.7 63 0.0 9.7 81 22.7 555
12:30 - 13:00 18.3 19.3 17.8 63 0.0 11.5 80 26.6 678
13:00 - 13:30 18.8 19.9 18.0 61 0.0 9.7 78 25.2 641
13:30 - 14:00 18.5 19.5 17.4 62 0.0 7.9 96 23.0 462
14:00 - 14:30 17.8 18.1 17.4 62 0.0 6.1 106 25.2 363
14:30 - 15:00 17.4 17.8 17.0 64 0.0 9.0 91 21.6 286
15:00 - 15:30 16.8 17.0 16.6 68 0.0 10.8 81 24.8 246
15:30 - 16:00 16.9 17.4 16.6 64 0.0 10.1 75 24.1 285
16:00 - 16:30 17.5 17.8 17.1 60 0.0 10.1 79 27.0 297
16:30 - 17:00 17.1 17.2 17.0 59 0.0 9.4 79 24.5 142
17:00 - 17:30 17.2 17.3 17.1 57 0.0 9.7 75 24.5 110
17:30 - 18:00 16.9 17.3 16.6 58 0.0 8.6 75 22.3 73
18:00 - 18:30 16.2 16.6 15.9 67 0.0 7.9 78 19.8 14
18:30 - 19:00 15.7 15.9 15.5 71 0.0 7.2 77 19.1 4
19:00 - 19:30 15.6 15.8 15.5 70 0.0 8.3 78 18.7 3
19:30 - 20:00 15.8 15.9 15.7 66 0.0 7.9 74 27.0 3
20:00 - 20:30 16.0 16.0 15.9 60 0.0 8.3 72 24.5 3
20:30 - 21:00 15.9 15.9 15.8 62 0.0 7.9 74 23.8 3
21:00 - 21:30 15.9 16.0 15.8 62 0.0 8.6 78 20.5 3
21:30 - 22:00 16.0 16.1 15.9 62 0.0 6.5 71 18.7 3
22:00 - 22:30 16.0 16.1 15.9 61 0.0 8.3 75 22.7 3

Les dades en taronja només han passat un control de qualitat automàtic. Resta pendent la seva validació definitiva.